createdAt,value
2023-04-17T00:08:51.287Z,26.50
2023-04-17T00:13:56.177Z,28.67
2023-04-17T00:18:59.642Z,28.95
2023-04-17T00:24:03.264Z,29.67
2023-04-17T00:29:08.173Z,26.33
2023-04-17T00:39:15.019Z,26.02
2023-04-17T00:44:19.993Z,31.17
2023-04-17T00:49:23.832Z,31.70
2023-04-17T00:54:27.674Z,32.17
2023-04-17T00:59:33.860Z,30.50
2023-04-17T01:04:37.345Z,27.25
2023-04-17T01:09:40.840Z,34.88
2023-04-17T01:14:46.030Z,32.17
2023-04-17T01:19:50.247Z,26.55
2023-04-17T01:24:55.162Z,36.43
2023-04-17T01:29:58.634Z,28.48
2023-04-17T01:35:02.282Z,26.13
2023-04-17T01:40:10.317Z,29.75
2023-04-17T01:45:14.082Z,26.83
2023-04-17T01:50:18.034Z,33.95
2023-04-17T01:55:23.098Z,29.10
2023-04-17T02:00:26.788Z,32.33
2023-04-17T02:05:30.598Z,24.55
2023-04-17T02:10:35.590Z,25.63
2023-04-17T02:20:42.992Z,25.13
2023-04-17T02:25:47.870Z,23.33
2023-04-17T02:30:51.327Z,26.20
2023-04-17T02:35:54.844Z,19.85
2023-04-17T02:41:00.088Z,24.60
2023-04-17T02:46:03.849Z,21.58
2023-04-17T02:51:07.617Z,19.55
2023-04-17T02:56:12.865Z,22.52
2023-04-17T03:01:16.432Z,21.10
2023-04-17T03:06:20.205Z,23.90
2023-04-17T03:11:25.524Z,23.98
2023-04-17T03:16:29.109Z,29.75
2023-04-17T03:21:32.906Z,23.73
2023-04-17T03:26:37.828Z,22.27
2023-04-17T03:31:41.573Z,19.75
2023-04-17T03:36:45.270Z,19.90
2023-04-17T03:41:50.289Z,19.60
2023-04-17T03:46:53.940Z,18.55
2023-04-17T03:51:57.770Z,19.17
2023-04-17T03:57:03.262Z,22.58
2023-04-17T04:02:07.248Z,23.33
2023-04-17T04:07:11.139Z,20.67
2023-04-17T04:12:16.214Z,17.90
2023-04-17T04:22:22.997Z,20.10
2023-04-17T04:27:32.947Z,23.33
2023-04-17T04:32:37.741Z,20.73
2023-04-17T04:37:43.137Z,22.95
2023-04-17T04:42:49.732Z,23.80
2023-04-17T04:47:53.540Z,23.77
2023-04-17T04:52:57.117Z,24.73
2023-04-17T04:58:02.163Z,27.33
2023-04-17T05:03:06.756Z,25.17
2023-04-17T05:13:15.242Z,19.38
2023-04-17T05:23:23.338Z,23.60
2023-04-17T05:33:33.456Z,18.08
2023-04-17T05:38:37.021Z,16.38
2023-04-17T05:43:42.912Z,20.02
2023-04-17T05:48:46.400Z,19.38
2023-04-17T05:53:50.000Z,46.97
2023-04-17T05:58:54.978Z,19.73
2023-04-17T06:09:02.744Z,15.93
2023-04-17T06:14:07.760Z,16.63
2023-04-17T06:19:11.677Z,18.58
2023-04-17T06:24:15.506Z,15.27
2023-04-17T06:29:20.606Z,15.10
2023-04-17T06:34:24.249Z,18.10
2023-04-17T06:39:28.018Z,18.13
2023-04-17T06:44:32.894Z,20.00
2023-04-17T06:54:39.854Z,16.48
2023-04-17T06:59:44.916Z,21.50
2023-04-17T07:04:48.519Z,21.35
2023-04-17T07:09:52.294Z,15.95
2023-04-17T07:14:57.288Z,24.48
2023-04-17T07:20:01.252Z,19.63
2023-04-17T07:25:06.921Z,16.20
2023-04-17T07:30:12.830Z,16.08
2023-04-17T07:35:16.630Z,18.88
2023-04-17T07:40:20.425Z,21.63
2023-04-17T07:45:26.333Z,13.95
2023-04-17T07:50:30.217Z,14.27
2023-04-17T07:55:34.029Z,15.17
2023-04-17T08:00:39.154Z,15.50
2023-04-17T08:05:42.665Z,17.95
2023-04-17T08:10:46.732Z,15.90
2023-04-17T08:15:52.313Z,25.10
2023-04-17T08:20:55.926Z,24.27
2023-04-17T08:25:59.877Z,23.20
2023-04-17T08:31:05.301Z,28.70
2023-04-17T08:36:10.700Z,24.65
2023-04-17T08:41:19.831Z,22.73
2023-04-17T08:46:25.967Z,23.08
2023-04-17T08:51:29.574Z,20.35
2023-04-17T08:56:33.071Z,25.85
2023-04-17T09:01:38.181Z,18.27
2023-04-17T09:06:52.845Z,18.65
2023-04-17T09:12:12.284Z,20.83
2023-04-17T09:17:19.820Z,16.27
2023-04-17T09:22:24.689Z,16.27
2023-04-17T09:27:29.902Z,12.23
2023-04-17T09:32:35.910Z,11.65
2023-04-17T09:37:51.072Z,15.63
2023-04-17T09:42:57.220Z,23.83
2023-04-17T09:48:03.001Z,11.73
2023-04-17T09:53:08.370Z,12.30
2023-04-17T09:58:12.586Z,9.23
2023-04-17T10:03:18.625Z,9.50
2023-04-17T10:08:23.404Z,10.95
2023-04-17T10:13:29.973Z,13.90
2023-04-17T10:18:35.126Z,10.15
2023-04-17T10:23:40.155Z,15.02
2023-04-17T10:28:50.657Z,11.15
2023-04-17T10:33:55.893Z,9.00
2023-04-17T10:39:14.594Z,9.60
2023-04-17T10:44:19.652Z,10.40
2023-04-17T10:49:24.795Z,9.18
2023-04-17T10:54:28.470Z,8.95
2023-04-17T10:59:32.985Z,9.07
2023-04-17T11:09:41.660Z,6.60
2023-04-17T11:14:45.247Z,7.63
2023-04-17T11:19:53.431Z,5.60
2023-04-17T11:24:56.917Z,7.40
2023-04-17T11:30:00.588Z,9.83
2023-04-17T11:35:06.451Z,6.47
2023-04-17T11:40:11.703Z,8.07
2023-04-17T11:45:15.830Z,7.30
2023-04-17T11:50:21.117Z,6.53
2023-04-17T11:55:30.449Z,8.82
2023-04-17T12:00:34.911Z,7.72
2023-04-17T12:05:39.981Z,8.02
2023-04-17T12:10:45.814Z,7.65
2023-04-17T12:15:49.476Z,8.18
2023-04-17T12:20:55.085Z,10.53
2023-04-17T12:25:58.950Z,9.13
2023-04-17T12:31:02.801Z,10.27
2023-04-17T12:36:09.202Z,11.98
2023-04-17T12:41:13.251Z,11.07
2023-04-17T12:46:17.762Z,10.27
2023-04-17T12:56:26.946Z,10.75
2023-04-17T13:01:30.803Z,10.23
2023-04-17T13:06:35.826Z,11.75
2023-04-17T13:11:39.547Z,10.27
2023-04-17T13:16:43.074Z,8.52
2023-04-17T13:21:48.233Z,10.30
2023-04-17T13:26:51.860Z,9.02
2023-04-17T13:31:55.394Z,11.13
2023-04-17T13:37:00.750Z,10.82
2023-04-17T13:42:04.290Z,13.13
2023-04-17T13:47:08.211Z,11.80
2023-04-17T13:52:13.173Z,9.63
2023-04-17T13:57:18.611Z,14.23
2023-04-17T14:02:22.373Z,10.88
2023-04-17T14:07:28.610Z,11.07
2023-04-17T14:12:32.632Z,9.13
2023-04-17T14:17:43.304Z,8.57
2023-04-17T14:22:48.488Z,10.63
2023-04-17T14:27:52.776Z,9.90
2023-04-17T14:32:56.630Z,10.68
2023-04-17T14:38:05.080Z,7.77
2023-04-17T14:43:08.738Z,11.20
2023-04-17T14:48:12.860Z,8.60
2023-04-17T14:53:19.467Z,10.85
2023-04-17T14:58:25.108Z,8.35
2023-04-17T15:03:28.935Z,8.90
2023-04-17T15:08:34.669Z,11.20
2023-04-17T15:13:39.666Z,9.68
2023-04-17T15:18:43.569Z,7.82
2023-04-17T15:23:48.631Z,21.87
2023-04-17T15:28:52.327Z,7.57
2023-04-17T15:33:56.045Z,11.53
2023-04-17T15:39:01.632Z,9.93
2023-04-17T15:44:06.106Z,7.63
2023-04-17T15:49:09.880Z,10.25
2023-04-17T15:54:15.137Z,12.43
2023-04-17T15:59:18.849Z,13.27
2023-04-17T16:04:22.861Z,13.63
2023-04-17T16:09:28.203Z,11.48
2023-04-17T16:14:31.875Z,10.20
2023-04-17T16:19:35.631Z,12.52
2023-04-17T16:24:40.892Z,13.20
2023-04-17T16:29:44.658Z,8.65
2023-04-17T16:34:48.803Z,11.65
2023-04-17T16:39:54.011Z,12.10
2023-04-17T16:44:57.566Z,15.15
2023-04-17T16:50:01.157Z,10.00
2023-04-17T16:55:06.841Z,14.07
2023-04-17T17:00:12.280Z,15.02
2023-04-17T17:05:16.203Z,14.60
2023-04-17T17:10:21.557Z,14.17
2023-04-17T17:15:25.321Z,9.35
2023-04-17T17:20:28.913Z,13.32
2023-04-17T17:25:33.987Z,16.13
2023-04-17T17:30:37.580Z,12.05
2023-04-17T17:35:41.239Z,15.65
2023-04-17T17:40:46.582Z,11.77
2023-04-17T17:45:50.664Z,13.23
2023-04-17T17:50:55.600Z,15.02
2023-04-17T17:56:00.681Z,13.25
2023-04-17T18:01:04.797Z,11.27
2023-04-17T18:06:08.671Z,15.70
2023-04-17T18:11:14.449Z,19.33
2023-04-17T18:16:18.248Z,17.40
2023-04-17T18:21:22.110Z,15.33
2023-04-17T18:26:27.021Z,16.55
2023-04-17T18:31:30.645Z,17.80
2023-04-17T18:36:34.143Z,36.92
2023-04-17T18:41:39.146Z,31.90
2023-04-17T18:46:42.723Z,23.90
2023-04-17T18:51:48.053Z,32.47
2023-04-17T18:56:52.995Z,34.83
2023-04-17T19:01:56.572Z,27.25
2023-04-17T19:07:02.177Z,23.52
2023-04-17T19:12:07.789Z,31.02
2023-04-17T19:17:11.493Z,24.08
2023-04-17T19:22:16.097Z,18.17
2023-04-17T19:27:23.402Z,27.00
2023-04-17T19:32:28.650Z,25.27
2023-04-17T19:37:33.463Z,25.50
2023-04-17T19:42:38.342Z,27.73
2023-04-17T19:52:45.565Z,27.30
2023-04-17T19:57:51.154Z,19.98
2023-04-17T20:02:54.761Z,18.58
2023-04-17T20:07:58.552Z,25.77
2023-04-17T20:13:04.017Z,23.65
2023-04-17T20:18:08.570Z,23.77
2023-04-17T20:23:12.548Z,26.98
2023-04-17T20:28:17.524Z,19.97
2023-04-17T20:33:21.250Z,25.27
2023-04-17T20:38:24.873Z,25.23
2023-04-17T20:43:29.762Z,29.55
2023-04-17T20:53:36.438Z,26.98
2023-04-17T20:58:41.501Z,19.65
2023-04-17T21:03:45.336Z,25.38
2023-04-17T21:08:48.989Z,16.17
2023-04-17T21:13:54.646Z,37.92
2023-04-17T21:18:58.204Z,25.08
2023-04-17T21:24:01.916Z,24.30
2023-04-17T21:29:07.016Z,25.02
2023-04-17T21:34:11.131Z,19.40
2023-04-17T21:39:14.810Z,27.00
2023-04-17T21:44:19.748Z,30.42
2023-04-17T21:54:28.086Z,20.27
2023-04-17T21:59:33.138Z,16.45
2023-04-17T22:04:36.752Z,27.58
2023-04-17T22:09:40.424Z,22.75
2023-04-17T22:14:45.413Z,22.23
2023-04-17T22:19:48.914Z,22.40
2023-04-17T22:24:52.968Z,21.17
2023-04-17T22:29:57.865Z,23.20
2023-04-17T22:40:05.505Z,22.40
2023-04-17T22:45:10.782Z,26.90
2023-04-17T22:50:14.466Z,24.70
2023-04-17T22:55:18.223Z,24.77
2023-04-17T23:00:24.122Z,19.25
2023-04-17T23:05:27.902Z,23.55
2023-04-17T23:10:32.725Z,32.42
2023-04-17T23:15:37.819Z,16.70
2023-04-17T23:20:41.366Z,19.85
2023-04-17T23:25:44.790Z,21.83
2023-04-17T23:30:49.759Z,21.58
2023-04-17T23:40:56.348Z,21.00
2023-04-17T23:46:01.293Z,20.85
2023-04-17T23:51:05.866Z,23.55
2023-04-17T23:56:09.470Z,24.13
